createdAt,value
2023-02-22T00:00:46.214Z,11.40
2023-02-22T00:01:46.192Z,10.80
2023-02-22T00:03:49.377Z,10.70
2023-02-22T00:04:48.477Z,12.30
2023-02-22T00:05:48.413Z,13.00
2023-02-22T00:07:05.555Z,15.00
2023-02-22T00:07:48.387Z,11.80
2023-02-22T00:08:48.369Z,10.50
2023-02-22T00:09:48.356Z,12.50
2023-02-22T00:10:48.374Z,12.80
2023-02-22T00:11:48.336Z,12.60
2023-02-22T00:12:48.321Z,13.30
2023-02-22T00:13:48.313Z,14.10
2023-02-22T00:14:48.310Z,11.80
2023-02-22T00:15:48.315Z,12.00
2023-02-22T00:16:48.297Z,14.70
2023-02-22T00:17:48.272Z,13.10
2023-02-22T00:18:48.253Z,11.60
2023-02-22T00:19:48.254Z,12.80
2023-02-22T00:20:48.255Z,14.10
2023-02-22T00:21:48.229Z,11.20
2023-02-22T00:22:48.215Z,12.00
2023-02-22T00:23:48.216Z,13.60
2023-02-22T00:24:48.196Z,11.30
2023-02-22T00:25:48.205Z,11.40
2023-02-22T00:26:48.184Z,11.10
2023-02-22T00:27:48.176Z,11.90
2023-02-22T00:28:48.157Z,11.20
2023-02-22T00:29:48.147Z,12.90
2023-02-22T00:30:48.145Z,13.50
2023-02-22T00:31:48.281Z,13.40
2023-02-22T00:32:48.119Z,13.40
2023-02-22T00:33:48.110Z,12.50
2023-02-22T00:34:48.092Z,15.80
2023-02-22T00:35:48.141Z,16.40
2023-02-22T00:36:48.067Z,16.80
2023-02-22T00:37:48.061Z,16.90
2023-02-22T00:38:48.051Z,16.60
2023-02-22T00:39:48.039Z,16.70
2023-02-22T00:40:48.041Z,22.50
2023-02-22T00:41:48.146Z,20.40
2023-02-22T00:42:48.014Z,18.30
2023-02-22T00:43:48.012Z,18.40
2023-02-22T00:44:47.989Z,17.90
2023-02-22T00:45:48.048Z,19.10
2023-02-22T00:46:47.969Z,16.90
2023-02-22T00:47:47.967Z,16.90
2023-02-22T00:48:47.946Z,17.20
2023-02-22T00:49:47.947Z,18.70
2023-02-22T00:50:47.940Z,18.50
2023-02-22T00:51:47.918Z,24.10
2023-02-22T00:52:47.920Z,22.70
2023-02-22T00:53:47.892Z,25.10
2023-02-22T00:54:47.889Z,28.70
2023-02-22T00:55:47.894Z,27.30
2023-02-22T00:56:47.866Z,38.50
2023-02-22T00:57:47.858Z,53.50
2023-02-22T00:58:47.844Z,36.70
2023-02-22T00:59:47.838Z,41.50
2023-02-22T01:00:47.853Z,35.80
2023-02-22T01:01:47.818Z,29.00
2023-02-22T01:02:47.795Z,32.10
2023-02-22T01:03:47.794Z,36.30
2023-02-22T01:04:47.768Z,36.30
2023-02-22T01:05:47.778Z,28.00
2023-02-22T01:06:47.751Z,31.50
2023-02-22T01:07:47.740Z,30.20
2023-02-22T01:08:47.730Z,27.30
2023-02-22T01:09:47.718Z,28.60
2023-02-22T01:10:47.731Z,29.50
2023-02-22T01:11:47.712Z,32.40
2023-02-22T01:12:47.692Z,34.50
2023-02-22T01:13:47.692Z,43.30
2023-02-22T01:14:47.666Z,36.10
2023-02-22T01:15:47.682Z,47.90
2023-02-22T01:16:47.712Z,34.70
2023-02-22T01:17:47.665Z,48.70
2023-02-22T01:18:47.629Z,83.60
2023-02-22T01:19:47.618Z,45.60
2023-02-22T01:20:47.617Z,46.50
2023-02-22T01:21:47.595Z,46.80
2023-02-22T01:22:47.586Z,38.30
2023-02-22T01:23:47.578Z,33.40
2023-02-22T01:24:47.610Z,31.60
2023-02-22T01:25:47.603Z,36.50
2023-02-22T01:26:47.536Z,39.20
2023-02-22T01:27:47.529Z,34.30
2023-02-22T01:28:47.519Z,34.20
2023-02-22T01:29:47.517Z,39.20
2023-02-22T01:30:47.611Z,33.70
2023-02-22T01:31:47.539Z,41.30
2023-02-22T01:32:47.471Z,56.00
2023-02-22T01:33:47.477Z,50.70
2023-02-22T01:34:47.464Z,50.20
2023-02-22T01:35:47.453Z,63.80
2023-02-22T01:36:47.449Z,73.20
2023-02-22T01:37:47.422Z,129.20
2023-02-22T01:38:47.411Z,130.70
2023-02-22T01:39:47.422Z,104.10
2023-02-22T01:40:47.392Z,144.00
2023-02-22T01:41:47.409Z,205.30
2023-02-22T01:42:47.368Z,246.10
2023-02-22T01:43:47.376Z,152.60
2023-02-22T01:44:47.357Z,240.90
2023-02-22T01:45:47.374Z,242.80
2023-02-22T01:46:47.356Z,187.00
2023-02-22T01:47:47.321Z,256.90
2023-02-22T01:48:47.307Z,205.40
2023-02-22T01:49:47.303Z,197.00
2023-02-22T01:50:47.281Z,238.70
2023-02-22T01:51:47.292Z,182.10
2023-02-22T01:52:47.292Z,175.50
2023-02-22T01:53:47.252Z,188.70
2023-02-22T01:54:47.243Z,173.90
2023-02-22T01:55:47.233Z,262.90
2023-02-22T01:56:47.229Z,248.00
2023-02-22T01:57:47.227Z,251.20
2023-02-22T01:58:47.202Z,291.40
2023-02-22T01:59:47.200Z,198.40
2023-02-22T02:00:47.175Z,245.80
2023-02-22T02:01:47.179Z,301.10
2023-02-22T02:02:47.156Z,138.40
2023-02-22T02:03:47.170Z,91.50
2023-02-22T02:04:47.181Z,99.30
2023-02-22T02:05:47.124Z,243.40
2023-02-22T02:06:47.141Z,275.60
2023-02-22T02:07:47.106Z,291.40
2023-02-22T02:08:47.087Z,425.10
2023-02-22T02:09:47.083Z,285.70
2023-02-22T02:10:47.063Z,201.70
2023-02-22T02:11:47.069Z,220.30
2023-02-22T02:12:47.106Z,196.10
2023-02-22T02:13:47.052Z,76.70
2023-02-22T02:14:47.034Z,71.00
2023-02-22T02:15:47.030Z,117.90
2023-02-22T02:16:47.077Z,97.50
2023-02-22T02:17:47.005Z,92.80
2023-02-22T02:18:46.993Z,108.30
2023-02-22T02:19:46.980Z,87.70
2023-02-22T02:20:46.975Z,87.50
2023-02-22T02:21:46.987Z,151.10
2023-02-22T02:22:46.949Z,136.70
2023-02-22T02:23:46.944Z,118.30
2023-02-22T02:24:46.937Z,88.40
2023-02-22T02:25:46.918Z,131.80
2023-02-22T02:26:46.919Z,320.10
2023-02-22T02:27:46.896Z,310.60
2023-02-22T02:28:46.885Z,282.40
2023-02-22T02:29:46.886Z,195.70
2023-02-22T02:30:46.878Z,218.80
2023-02-22T02:31:46.942Z,139.50
2023-02-22T02:32:46.857Z,97.10
2023-02-22T02:33:46.832Z,69.50
2023-02-22T02:34:46.822Z,61.40
2023-02-22T02:35:46.833Z,95.30
2023-02-22T02:36:46.813Z,144.50
2023-02-22T02:39:38.886Z,214.40
2023-02-22T02:40:12.941Z,95.20
2023-02-22T02:41:12.868Z,94.20
2023-02-22T02:42:12.896Z,76.10
2023-02-22T02:43:12.864Z,117.90
2023-02-22T02:44:15.046Z,164.80
2023-02-22T02:45:12.813Z,236.90
2023-02-22T02:46:12.811Z,294.30
2023-02-22T02:47:12.887Z,256.10
2023-02-22T02:48:12.789Z,362.20
2023-02-22T02:49:12.778Z,235.30
2023-02-22T02:50:12.767Z,81.10
2023-02-22T02:51:12.758Z,90.10
2023-02-22T02:52:12.765Z,69.40
2023-02-22T02:53:12.743Z,119.00
2023-02-22T02:54:12.726Z,78.70
2023-02-22T02:55:12.715Z,63.70
2023-02-22T02:56:12.710Z,83.10
2023-02-22T02:57:12.703Z,173.40
2023-02-22T02:58:12.676Z,118.10
2023-02-22T02:59:12.673Z,61.60
2023-02-22T03:00:12.657Z,51.20
2023-02-22T03:01:12.683Z,89.00
2023-02-22T03:02:12.648Z,66.00
2023-02-22T03:03:12.627Z,72.60
2023-02-22T03:04:12.616Z,81.30
2023-02-22T03:05:12.611Z,97.30
2023-02-22T03:06:12.599Z,64.30
2023-02-22T03:07:12.629Z,58.10
2023-02-22T03:08:12.576Z,59.00
2023-02-22T03:09:12.564Z,92.60
2023-02-22T03:10:12.554Z,92.30
2023-02-22T03:11:12.553Z,75.50
2023-02-22T03:12:12.550Z,67.10
2023-02-22T03:13:12.529Z,59.80
2023-02-22T03:14:12.524Z,55.30
2023-02-22T03:15:12.506Z,54.00
2023-02-22T03:16:12.518Z,52.30
2023-02-22T03:17:12.504Z,63.70
2023-02-22T03:18:12.500Z,64.90
2023-02-22T03:19:12.461Z,92.70
2023-02-22T03:20:12.456Z,54.60
2023-02-22T03:21:12.438Z,49.60
2023-02-22T03:22:12.430Z,46.80
2023-02-22T03:23:12.433Z,77.80
2023-02-22T03:24:12.403Z,81.30
2023-02-22T03:25:12.409Z,71.90
2023-02-22T03:26:12.391Z,123.10
2023-02-22T03:27:12.374Z,73.90
2023-02-22T03:28:12.376Z,99.00
2023-02-22T03:29:12.406Z,72.10
2023-02-22T03:30:12.425Z,99.90
2023-02-22T03:31:12.378Z,141.90
2023-02-22T03:32:12.325Z,86.50
2023-02-22T03:33:12.322Z,68.80
2023-02-22T03:34:12.305Z,94.40
2023-02-22T03:35:12.293Z,54.80
2023-02-22T03:36:12.293Z,155.00
2023-02-22T03:37:12.270Z,51.80
2023-02-22T03:38:12.277Z,46.80
2023-02-22T03:39:12.260Z,65.80
2023-02-22T03:40:12.250Z,46.60
2023-02-22T03:41:12.240Z,49.80
2023-02-22T03:42:12.217Z,44.60
2023-02-22T03:43:12.249Z,39.80
2023-02-22T03:44:12.206Z,58.10
2023-02-22T03:45:12.206Z,41.70
2023-02-22T03:46:12.206Z,52.80
2023-02-22T03:47:12.175Z,46.40
2023-02-22T03:48:12.167Z,49.50
2023-02-22T03:49:12.147Z,49.90
2023-02-22T03:50:12.138Z,46.90
2023-02-22T03:51:12.132Z,49.50
2023-02-22T03:52:12.132Z,48.20
2023-02-22T03:53:12.131Z,39.40
2023-02-22T03:54:12.095Z,82.20
2023-02-22T03:55:12.097Z,49.90
2023-02-22T03:56:12.080Z,44.20
2023-02-22T03:57:12.068Z,37.20
2023-02-22T03:58:12.066Z,61.80
2023-02-22T03:59:12.055Z,81.50
2023-02-22T04:00:12.050Z,85.00
2023-02-22T04:01:13.236Z,62.40
2023-02-22T04:02:13.216Z,162.30
2023-02-22T04:03:13.248Z,73.40
2023-02-22T04:04:13.237Z,67.70
2023-02-22T04:05:13.183Z,149.30
2023-02-22T04:06:13.173Z,100.10
2023-02-22T04:07:13.150Z,128.90
2023-02-22T04:08:13.148Z,82.20
2023-02-22T04:09:13.163Z,129.00
2023-02-22T04:10:13.127Z,132.10
2023-02-22T04:11:13.158Z,94.40
2023-02-22T04:12:13.118Z,107.90
2023-02-22T04:13:13.093Z,56.90
2023-02-22T04:14:13.054Z,55.00
2023-02-22T04:15:13.094Z,59.70
2023-02-22T04:16:13.085Z,56.80
2023-02-22T04:17:13.061Z,56.30
2023-02-22T04:18:13.067Z,41.70
2023-02-22T04:19:13.072Z,60.80
2023-02-22T04:20:13.028Z,63.90
2023-02-22T04:21:13.019Z,49.30
2023-02-22T04:22:13.017Z,63.00
2023-02-22T04:23:13.020Z,47.40
2023-02-22T04:24:13.002Z,61.40
2023-02-22T04:25:12.981Z,52.10
2023-02-22T04:26:12.961Z,51.10
2023-02-22T04:27:12.963Z,44.90
2023-02-22T04:28:12.951Z,51.70
2023-02-22T04:29:12.947Z,62.30
2023-02-22T04:30:12.977Z,48.70
2023-02-22T04:31:12.966Z,42.50
2023-02-22T04:32:13.013Z,54.10
2023-02-22T04:33:12.982Z,58.20
2023-02-22T04:34:12.874Z,44.60
2023-02-22T04:35:12.874Z,41.10
2023-02-22T04:36:12.861Z,49.10
2023-02-22T04:37:12.856Z,55.20
2023-02-22T04:38:12.826Z,94.70
2023-02-22T04:39:12.828Z,59.80
2023-02-22T04:40:12.843Z,82.60
2023-02-22T04:41:12.803Z,57.40
2023-02-22T04:42:12.808Z,82.30
2023-02-22T04:43:12.802Z,53.10
2023-02-22T04:44:12.797Z,50.40
2023-02-22T04:45:12.795Z,36.00
2023-02-22T04:46:12.790Z,35.60
2023-02-22T04:47:12.789Z,39.90
2023-02-22T04:48:12.777Z,50.20
2023-02-22T04:49:12.744Z,108.70
2023-02-22T04:50:12.722Z,67.50
2023-02-22T04:51:12.713Z,94.70
2023-02-22T04:52:12.692Z,144.90
2023-02-22T04:53:12.693Z,172.60
2023-02-22T04:54:12.720Z,215.30
2023-02-22T04:55:12.688Z,259.10
2023-02-22T04:56:12.675Z,171.10
2023-02-22T04:57:12.658Z,94.50
2023-02-22T04:58:12.666Z,115.30
2023-02-22T04:59:12.676Z,99.40
2023-02-22T05:00:12.665Z,98.80
2023-02-22T05:01:12.642Z,95.90
2023-02-22T05:02:12.637Z,221.40
2023-02-22T05:03:12.612Z,158.30
2023-02-22T05:04:12.606Z,98.00
2023-02-22T05:05:12.580Z,120.90
2023-02-22T05:06:12.592Z,143.80
2023-02-22T05:07:12.572Z,57.00
2023-02-22T05:08:12.555Z,62.40
2023-02-22T05:09:12.570Z,69.60
2023-02-22T05:10:12.527Z,56.10
2023-02-22T05:11:12.533Z,71.60
2023-02-22T05:12:12.504Z,61.50
2023-02-22T05:13:12.495Z,64.70
2023-02-22T05:14:12.491Z,67.40
2023-02-22T05:15:12.502Z,59.80
2023-02-22T05:16:12.546Z,53.80
2023-02-22T05:17:12.471Z,49.60
2023-02-22T05:18:12.489Z,52.20
2023-02-22T05:19:12.465Z,65.40
2023-02-22T05:20:12.439Z,63.70
2023-02-22T05:21:12.443Z,67.60
2023-02-22T05:22:12.413Z,70.90
2023-02-22T05:23:12.431Z,75.10
2023-02-22T05:24:12.489Z,79.50
2023-02-22T05:25:12.386Z,60.90
2023-02-22T05:26:12.372Z,67.20
2023-02-22T05:27:12.366Z,69.50
2023-02-22T05:28:12.375Z,60.20
2023-02-22T05:29:12.369Z,58.50
2023-02-22T05:30:12.436Z,63.50
2023-02-22T05:31:12.346Z,69.60
2023-02-22T05:32:12.414Z,77.10
2023-02-22T05:33:12.330Z,93.70
2023-02-22T05:34:12.330Z,120.80
2023-02-22T05:35:12.317Z,100.10
2023-02-22T05:36:12.259Z,89.60
2023-02-22T05:37:12.296Z,65.30
2023-02-22T05:38:12.286Z,86.50
2023-02-22T05:39:12.355Z,140.10
2023-02-22T05:40:12.250Z,146.70
2023-02-22T05:41:12.267Z,61.60
2023-02-22T05:42:12.229Z,40.40
2023-02-22T05:43:12.240Z,48.30
2023-02-22T05:44:12.247Z,39.10
2023-02-22T05:45:12.238Z,46.00
2023-02-22T05:46:12.155Z,40.30
2023-02-22T05:47:12.184Z,42.70
2023-02-22T05:48:12.169Z,32.80
2023-02-22T05:49:12.224Z,38.60
2023-02-22T05:50:12.206Z,39.50
2023-02-22T05:51:12.233Z,40.40
2023-02-22T05:52:12.149Z,40.00
2023-02-22T05:53:12.141Z,43.20
2023-02-22T05:54:12.130Z,54.90
2023-02-22T05:55:12.115Z,40.20
2023-02-22T05:56:12.101Z,39.40
2023-02-22T05:57:12.109Z,72.20
2023-02-22T05:58:12.091Z,86.30
2023-02-22T05:59:12.110Z,97.00
2023-02-22T06:00:12.141Z,66.20
2023-02-22T06:01:12.025Z,51.70
2023-02-22T06:02:13.074Z,54.20
2023-02-22T06:03:12.021Z,87.90
2023-02-22T06:04:12.016Z,48.60
2023-02-22T06:05:12.091Z,47.60
2023-02-22T06:06:11.994Z,79.80
2023-02-22T06:07:11.986Z,78.30
2023-02-22T06:08:11.964Z,130.90
2023-02-22T06:09:11.970Z,96.90
2023-02-22T06:10:11.969Z,58.40
2023-02-22T06:11:11.941Z,47.00
2023-02-22T06:12:11.983Z,54.70
2023-02-22T06:13:12.467Z,70.30
2023-02-22T06:14:11.955Z,135.50
2023-02-22T06:15:11.921Z,114.90
2023-02-22T06:16:11.909Z,105.30
2023-02-22T06:17:11.893Z,118.80
2023-02-22T06:18:11.879Z,131.40
2023-02-22T06:19:11.873Z,111.20
2023-02-22T06:20:11.904Z,91.80
2023-02-22T06:21:11.864Z,106.40
2023-02-22T06:22:11.859Z,100.40
2023-02-22T06:23:11.882Z,64.50
2023-02-22T06:26:13.552Z,54.50
2023-02-22T06:26:17.916Z,80.10
2023-02-22T06:27:15.114Z,79.70
2023-02-22T06:28:15.709Z,94.90
2023-02-22T06:29:48.986Z,125.50
2023-02-22T06:30:15.112Z,105.80
2023-02-22T06:31:15.259Z,69.70
2023-02-22T06:32:16.095Z,87.10
2023-02-22T06:33:15.008Z,140.00
2023-02-22T06:34:14.994Z,104.90
2023-02-22T06:35:15.001Z,120.40
2023-02-22T06:36:14.982Z,129.80
2023-02-22T06:37:14.957Z,153.40
2023-02-22T06:38:14.938Z,140.70
2023-02-22T06:39:14.944Z,158.30
2023-02-22T06:40:14.940Z,184.70
2023-02-22T06:41:15.285Z,220.30
2023-02-22T06:42:14.959Z,199.60
2023-02-22T06:43:14.945Z,195.20
2023-02-22T06:44:14.872Z,157.20
2023-02-22T06:45:14.869Z,153.70
2023-02-22T06:46:14.860Z,161.90
2023-02-22T06:47:14.858Z,101.50
2023-02-22T06:48:14.856Z,95.80
2023-02-22T06:49:14.869Z,75.80
2023-02-22T06:50:14.838Z,115.10
2023-02-22T06:51:15.179Z,138.00
2023-02-22T06:52:14.844Z,137.50
2023-02-22T06:53:14.839Z,110.20
2023-02-22T06:54:14.819Z,118.40
2023-02-22T06:55:14.828Z,113.80
2023-02-22T06:56:14.786Z,108.10
2023-02-22T06:57:14.783Z,112.10
2023-02-22T06:58:14.752Z,113.90
2023-02-22T06:59:14.777Z,117.80
2023-02-22T07:00:14.761Z,106.10
2023-02-22T07:01:15.074Z,117.10
2023-02-22T07:02:14.750Z,150.70
2023-02-22T07:03:14.772Z,127.80
2023-02-22T07:04:14.713Z,95.40
2023-02-22T07:05:14.696Z,124.70
2023-02-22T07:06:14.727Z,111.70
2023-02-22T07:07:14.690Z,128.80
2023-02-22T07:08:14.652Z,134.70
2023-02-22T07:09:14.647Z,130.50
2023-02-22T07:10:14.653Z,115.00
2023-02-22T07:11:15.217Z,124.30
2023-02-22T07:12:14.756Z,140.50
2023-02-22T07:13:15.127Z,108.10
2023-02-22T07:14:14.627Z,158.90
2023-02-22T07:15:14.657Z,140.20
2023-02-22T07:16:14.711Z,108.40
2023-02-22T07:17:14.666Z,97.70
2023-02-22T07:18:14.596Z,104.20
2023-02-22T07:19:14.585Z,108.40
2023-02-22T07:20:14.572Z,138.50
2023-02-22T07:21:14.810Z,104.60
2023-02-22T07:22:14.568Z,105.70
2023-02-22T07:23:14.578Z,104.30
2023-02-22T07:24:15.256Z,111.00
2023-02-22T07:25:14.455Z,115.00
2023-02-22T07:26:14.522Z,101.00
2023-02-22T07:27:14.540Z,133.10
2023-02-22T07:28:14.473Z,108.40
2023-02-22T07:29:14.523Z,86.90
2023-02-22T07:30:14.646Z,78.60
2023-02-22T07:31:14.930Z,97.20
2023-02-22T07:32:14.606Z,105.70
2023-02-22T07:33:14.563Z,127.40
2023-02-22T07:34:14.468Z,127.50
2023-02-22T07:35:14.440Z,102.00
2023-02-22T07:36:14.476Z,79.70
2023-02-22T07:37:14.405Z,52.20
2023-02-22T07:38:14.527Z,49.00
2023-02-22T07:39:14.358Z,45.80
2023-02-22T07:40:14.350Z,38.40
2023-02-22T07:41:14.579Z,47.40
2023-02-22T07:42:14.413Z,37.30
2023-02-22T07:43:14.376Z,32.90
2023-02-22T07:44:14.413Z,39.60
2023-02-22T07:45:14.365Z,38.60
2023-02-22T07:46:14.353Z,36.40
2023-02-22T07:47:14.375Z,37.50
2023-02-22T07:48:16.861Z,41.30
2023-02-22T07:49:14.382Z,36.00
2023-02-22T07:50:14.436Z,32.50
2023-02-22T07:51:14.590Z,35.00
2023-02-22T07:52:14.335Z,30.80
2023-02-22T07:53:14.267Z,36.60
2023-02-22T07:54:14.317Z,29.20
2023-02-22T07:55:14.368Z,36.30
2023-02-22T07:56:14.576Z,30.90
2023-02-22T07:57:14.280Z,27.90
2023-02-22T07:58:14.516Z,27.30
2023-02-22T07:59:14.444Z,35.90
2023-02-22T08:00:14.248Z,43.10
2023-02-22T08:01:14.265Z,36.70
2023-02-22T08:02:16.888Z,40.60
2023-02-22T08:03:14.249Z,61.10
2023-02-22T08:04:14.342Z,81.00
2023-02-22T08:05:14.204Z,89.70
2023-02-22T08:06:14.278Z,96.30
2023-02-22T08:07:14.097Z,75.60
2023-02-22T08:08:14.068Z,77.80
2023-02-22T08:09:14.675Z,84.70
2023-02-22T08:10:14.650Z,63.90
2023-02-22T08:11:14.108Z,75.10
2023-02-22T08:12:14.197Z,103.50
2023-02-22T08:13:14.019Z,92.60
2023-02-22T08:14:14.274Z,90.30
2023-02-22T08:15:14.076Z,41.50
2023-02-22T08:16:17.653Z,80.30
2023-02-22T08:17:14.888Z,112.40
2023-02-22T08:18:14.505Z,94.30
2023-02-22T08:19:14.205Z,76.80
2023-02-22T08:20:14.127Z,71.00
2023-02-22T08:21:14.036Z,42.60
2023-02-22T08:22:14.041Z,46.90
2023-02-22T08:23:14.048Z,32.80
2023-02-22T08:24:14.027Z,35.70
2023-02-22T08:25:13.969Z,44.40
2023-02-22T08:26:14.013Z,34.60
2023-02-22T08:27:14.080Z,42.70
2023-02-22T08:28:13.940Z,27.10
2023-02-22T08:29:13.925Z,40.50
2023-02-22T08:30:13.988Z,29.70
2023-02-22T08:31:14.000Z,22.20
2023-02-22T08:32:14.005Z,25.80
2023-02-22T08:33:13.883Z,25.40
2023-02-22T08:34:13.970Z,40.20
2023-02-22T08:35:13.800Z,20.40
2023-02-22T08:36:13.808Z,17.90
2023-02-22T08:37:13.788Z,17.50
2023-02-22T08:38:15.282Z,18.80
2023-02-22T08:39:41.080Z,15.30
2023-02-22T08:40:19.349Z,16.10
2023-02-22T08:49:22.722Z,15.50
2023-02-22T08:50:05.322Z,18.70
2023-02-22T09:25:19.886Z,23.00
2023-02-22T09:26:18.692Z,27.40
2023-02-22T09:28:20.008Z,26.10
2023-02-22T09:29:18.660Z,21.40
2023-02-22T09:30:18.689Z,26.80
2023-02-22T09:31:19.122Z,22.10
2023-02-22T09:32:18.915Z,26.10
2023-02-22T09:33:18.623Z,21.50
2023-02-22T09:34:18.617Z,23.00
2023-02-22T09:35:18.627Z,18.80
2023-02-22T09:36:18.949Z,33.70
2023-02-22T09:37:18.592Z,22.30
2023-02-22T09:38:18.584Z,24.30
2023-02-22T09:39:18.579Z,24.50
2023-02-22T09:40:18.668Z,17.00
2023-02-22T09:41:18.727Z,20.70
2023-02-22T09:42:18.534Z,15.70
2023-02-22T09:43:18.511Z,18.20
2023-02-22T09:44:18.543Z,17.30
2023-02-22T09:45:18.498Z,17.90
2023-02-22T09:46:19.052Z,23.30
2023-02-22T09:47:18.570Z,20.10
2023-02-22T09:48:22.159Z,13.90
2023-02-22T09:49:18.463Z,14.70
2023-02-22T09:50:18.460Z,12.30
2023-02-22T09:51:18.446Z,15.40
2023-02-22T09:52:18.444Z,13.30
2023-02-22T09:53:18.445Z,13.20
2023-02-22T09:54:18.394Z,13.80
2023-02-22T09:55:18.413Z,13.80
2023-02-22T09:56:19.113Z,11.10
2023-02-22T09:57:18.385Z,16.40
2023-02-22T09:58:18.353Z,13.60
2023-02-22T09:59:18.343Z,12.00
2023-02-22T10:00:18.334Z,11.00
2023-02-22T10:01:18.339Z,11.00
2023-02-22T10:02:18.333Z,10.90
2023-02-22T10:03:21.003Z,10.50
2023-02-22T10:04:18.316Z,12.50
2023-02-22T10:05:18.320Z,11.60
2023-02-22T10:06:18.627Z,12.60
2023-02-22T10:07:18.298Z,12.00
2023-02-22T10:08:18.277Z,12.60
2023-02-22T10:09:18.237Z,13.40
2023-02-22T10:10:18.299Z,11.50
2023-02-22T10:11:18.235Z,16.00
2023-02-22T10:12:18.238Z,13.60
2023-02-22T10:13:18.212Z,13.80
2023-02-22T10:14:18.236Z,15.60
2023-02-22T10:15:18.216Z,20.60
2023-02-22T10:16:18.542Z,12.60
2023-02-22T10:17:18.168Z,10.40
2023-02-22T10:18:18.158Z,11.50
2023-02-22T10:19:18.130Z,11.90
2023-02-22T10:20:18.154Z,11.70
2023-02-22T10:21:18.156Z,13.20
2023-02-22T10:22:18.111Z,15.20
2023-02-22T10:23:18.103Z,13.50
2023-02-22T10:24:18.095Z,11.60
2023-02-22T10:25:18.166Z,10.60
2023-02-22T10:26:18.346Z,11.00
2023-02-22T10:27:18.049Z,10.40
2023-02-22T10:28:18.056Z,10.20
2023-02-22T10:29:18.026Z,10.90
2023-02-22T10:30:24.547Z,12.10
2023-02-22T10:31:19.207Z,12.00
2023-02-22T10:32:18.105Z,10.90
2023-02-22T10:33:18.006Z,11.10
2023-02-22T10:34:17.985Z,11.90
2023-02-22T10:35:17.976Z,13.30
2023-02-22T10:36:18.238Z,14.00
2023-02-22T10:37:17.985Z,13.70
2023-02-22T10:38:18.004Z,12.80
2023-02-22T10:39:17.979Z,13.40
2023-02-22T10:40:17.952Z,12.30
2023-02-22T10:41:17.913Z,11.30
2023-02-22T10:42:17.924Z,12.00
2023-02-22T10:43:17.947Z,11.20
2023-02-22T10:44:17.919Z,10.30
2023-02-22T10:45:17.867Z,11.80
2023-02-22T10:46:18.202Z,12.30
2023-02-22T10:47:18.538Z,11.10
2023-02-22T10:48:17.846Z,13.10
2023-02-22T10:49:17.850Z,13.50
2023-02-22T10:50:17.845Z,10.60
2023-02-22T10:51:17.795Z,10.60
2023-02-22T10:52:17.808Z,13.20
2023-02-22T10:53:17.792Z,13.60
2023-02-22T10:54:17.779Z,12.80
2023-02-22T10:55:17.764Z,13.30
2023-02-22T10:56:18.145Z,13.50
2023-02-22T10:57:17.733Z,15.90
2023-02-22T10:58:17.779Z,16.20
2023-02-22T11:19:47.584Z,10.90
2023-02-22T11:20:40.713Z,12.40
2023-02-22T11:21:40.989Z,12.80
2023-02-22T11:24:06.546Z,14.50
2023-02-22T11:25:06.589Z,12.50
2023-02-22T11:26:07.944Z,13.10
2023-02-22T11:29:37.498Z,11.50
2023-02-22T11:30:33.912Z,12.10
2023-02-22T11:31:33.732Z,10.30
2023-02-22T11:39:46.224Z,10.20
2023-02-22T11:50:20.412Z,8.30
2023-02-22T11:51:20.636Z,7.50
2023-02-22T11:52:20.396Z,7.70
2023-02-22T11:53:20.403Z,8.20
2023-02-22T11:54:20.377Z,7.90
2023-02-22T11:55:26.778Z,8.80
2023-02-22T11:56:35.744Z,8.00
2023-02-22T11:57:21.342Z,7.60
2023-02-22T11:58:20.323Z,9.40
2023-02-22T11:59:20.319Z,7.90
2023-02-22T12:00:20.300Z,12.90
2023-02-22T12:01:20.288Z,9.00
2023-02-22T12:02:20.283Z,10.40
2023-02-22T12:25:16.488Z,10.40
2023-02-22T12:26:17.088Z,10.80
2023-02-22T12:27:16.549Z,11.80
2023-02-22T12:28:24.172Z,10.60
2023-02-22T12:29:17.453Z,9.40
2023-02-22T12:30:16.507Z,10.00
2023-02-22T12:31:16.702Z,10.70
2023-02-22T12:32:16.595Z,10.20
2023-02-22T12:33:16.397Z,11.50
2023-02-22T12:34:16.566Z,12.80
2023-02-22T12:35:16.399Z,11.90
2023-02-22T12:36:16.482Z,11.60
2023-02-22T12:37:16.461Z,11.40
2023-02-22T12:38:16.401Z,12.40
2023-02-22T12:39:16.362Z,10.90
2023-02-22T12:40:16.432Z,11.20
2023-02-22T12:41:16.741Z,9.80
2023-02-22T12:42:16.357Z,9.60
2023-02-22T12:43:16.340Z,8.90
2023-02-22T12:44:16.297Z,9.30
2023-02-22T12:45:16.364Z,10.30
2023-02-22T12:46:16.310Z,9.20
2023-02-22T12:47:16.267Z,8.60
2023-02-22T12:48:16.246Z,10.40
2023-02-22T12:49:16.239Z,8.90
2023-02-22T12:50:16.298Z,9.60
2023-02-22T12:51:16.540Z,9.20
2023-02-22T12:52:21.774Z,9.10
2023-02-22T12:53:17.201Z,8.00
2023-02-22T12:54:16.181Z,8.40
2023-02-22T12:55:16.282Z,8.70
2023-02-22T12:56:16.202Z,8.10
2023-02-22T12:57:16.220Z,8.80
2023-02-22T12:58:16.157Z,8.00
2023-02-22T12:59:16.154Z,8.70
2023-02-22T13:00:16.164Z,8.00
2023-02-22T13:01:16.574Z,8.30
2023-02-22T13:02:16.101Z,7.80
2023-02-22T13:03:16.131Z,9.50
2023-02-22T13:04:20.982Z,8.20
2023-02-22T13:05:17.125Z,7.60
2023-02-22T13:06:16.130Z,9.10
2023-02-22T13:07:16.106Z,8.40
2023-02-22T13:08:16.079Z,8.40
2023-02-22T13:09:16.111Z,9.20
2023-02-22T13:10:16.048Z,8.80
2023-02-22T13:11:16.459Z,8.50
2023-02-22T13:12:16.037Z,8.70
2023-02-22T13:13:16.007Z,8.40
2023-02-22T13:14:15.992Z,9.20
2023-02-22T13:15:15.976Z,10.20
2023-02-22T13:16:16.129Z,8.40
2023-02-22T13:17:15.968Z,8.70
2023-02-22T13:18:16.003Z,8.30
2023-02-22T13:19:15.986Z,8.00
2023-02-22T13:20:15.989Z,8.60
2023-02-22T13:21:16.320Z,7.80
2023-02-22T13:22:15.970Z,8.50
2023-02-22T13:23:15.960Z,9.70
2023-02-22T13:24:15.947Z,8.50
2023-02-22T13:25:15.986Z,7.90
2023-02-22T13:26:15.904Z,8.10
2023-02-22T13:27:15.889Z,8.00
2023-02-22T13:28:15.975Z,8.50
2023-02-22T13:29:15.888Z,7.90
2023-02-22T13:30:15.870Z,9.30
2023-02-22T13:31:16.041Z,8.00
2023-02-22T13:32:15.833Z,8.10
2023-02-22T13:33:15.791Z,7.30
2023-02-22T13:34:16.063Z,7.30
2023-02-22T13:35:15.776Z,7.00
2023-02-22T13:36:16.065Z,8.40
2023-02-22T13:37:15.799Z,8.60
2023-02-22T13:38:15.806Z,8.50
2023-02-22T13:39:15.885Z,8.00
2023-02-22T13:40:15.721Z,8.10
2023-02-22T13:41:17.309Z,7.50
2023-02-22T13:42:16.893Z,7.50
2023-02-22T13:43:16.923Z,7.50
2023-02-22T13:44:17.106Z,8.00
2023-02-22T13:45:16.937Z,7.30
2023-02-22T13:46:17.200Z,7.80
2023-02-22T13:47:16.801Z,7.70
2023-02-22T13:48:16.978Z,8.20
2023-02-22T13:49:16.913Z,8.70
2023-02-22T13:50:19.647Z,7.60
2023-02-22T13:56:07.068Z,8.50
2023-02-22T13:57:07.409Z,7.90
2023-02-22T13:58:07.329Z,8.80
2023-02-22T13:59:07.126Z,8.00
2023-02-22T14:00:07.025Z,8.00
2023-02-22T14:01:07.031Z,7.60
2023-02-22T14:02:06.995Z,7.30
2023-02-22T14:03:34.708Z,7.30
2023-02-22T14:04:07.052Z,7.10
2023-02-22T14:05:07.049Z,7.00
2023-02-22T14:06:07.040Z,7.10
2023-02-22T14:07:06.947Z,7.20
2023-02-22T14:08:06.943Z,8.00
2023-02-22T14:09:06.971Z,6.40
2023-02-22T14:10:07.029Z,6.90
2023-02-22T14:11:06.934Z,6.70
2023-02-22T14:12:06.894Z,7.00
2023-02-22T14:13:06.897Z,7.60
2023-02-22T14:14:06.882Z,7.90
2023-02-22T14:15:10.720Z,8.10
2023-02-22T14:16:07.950Z,8.00
2023-02-22T14:17:06.862Z,8.70
2023-02-22T14:18:06.936Z,8.60
2023-02-22T14:19:06.824Z,6.10
2023-02-22T14:20:06.842Z,6.90
2023-02-22T14:21:06.822Z,7.00
2023-02-22T14:22:06.808Z,8.00
2023-02-22T14:23:06.852Z,7.80
2023-02-22T14:24:06.833Z,7.00
2023-02-22T14:25:07.716Z,8.80
2023-02-22T14:26:06.790Z,9.60
2023-02-22T14:27:06.758Z,8.30
2023-02-22T14:28:06.760Z,7.70
2023-02-22T14:29:06.792Z,8.80
2023-02-22T14:30:26.251Z,8.60
2023-02-22T14:31:07.959Z,8.00
2023-02-22T14:34:51.268Z,10.10
2023-02-22T14:36:16.711Z,7.10
2023-02-22T14:36:59.570Z,6.90
2023-02-22T14:37:50.859Z,8.50
2023-02-22T14:40:23.398Z,7.90
2023-02-22T14:41:23.461Z,7.40
2023-02-22T14:42:23.633Z,8.90
2023-02-22T14:43:30.982Z,7.80
2023-02-22T14:44:23.412Z,7.50
2023-02-22T14:45:23.405Z,7.60
2023-02-22T14:46:23.395Z,9.00
2023-02-22T14:47:23.449Z,8.00
2023-02-22T14:48:23.364Z,7.10
2023-02-22T14:49:23.341Z,10.00
2023-02-22T14:50:23.331Z,7.10